sensor_id;sensor_type;location;lat;lon;timestamp;pressure;altitude;pressure_sealevel;temperature;humidity
47983;BME280;33751;50.816;-1.214;2022-07-23T00:01:00;101926.06;;;19.01;100.00
47983;BME280;33751;50.816;-1.214;2022-07-23T00:03:27;101924.14;;;19.07;100.00
47983;BME280;33751;50.816;-1.214;2022-07-23T00:05:54;101921.46;;;18.76;100.00
47983;BME280;33751;50.816;-1.214;2022-07-23T00:08:21;101922.53;;;19.15;100.00
47983;BME280;33751;50.816;-1.214;2022-07-23T00:10:48;101922.68;;;19.04;100.00
47983;BME280;33751;50.816;-1.214;2022-07-23T00:13:15;101923.18;;;19.22;100.00
47983;BME280;33751;50.816;-1.214;2022-07-23T00:15:42;101920.93;;;19.14;100.00
47983;BME280;33751;50.816;-1.214;2022-07-23T00:18:09;101921.53;;;18.97;100.00
47983;BME280;33751;50.816;-1.214;2022-07-23T00:20:35;101923.50;;;19.03;100.00
47983;BME280;33751;50.816;-1.214;2022-07-23T00:23:03;101924.87;;;18.99;100.00
47983;BME280;33751;50.816;-1.214;2022-07-23T00:25:30;101926.03;;;18.99;100.00
47983;BME280;33751;50.816;-1.214;2022-07-23T00:27:57;101928.22;;;18.74;100.00
47983;BME280;33751;50.816;-1.214;2022-07-23T00:30:24;101931.56;;;19.13;100.00
47983;BME280;33751;50.816;-1.214;2022-07-23T00:32:54;101932.56;;;18.92;100.00
47983;BME280;33751;50.816;-1.214;2022-07-23T00:35:22;101932.32;;;19.08;100.00
47983;BME280;33751;50.816;-1.214;2022-07-23T00:37:49;101930.56;;;18.77;100.00
47983;BME280;33751;50.816;-1.214;2022-07-23T00:40:17;101927.09;;;18.86;100.00
47983;BME280;33751;50.816;-1.214;2022-07-23T00:42:44;101923.77;;;18.91;100.00
47983;BME280;33751;50.816;-1.214;2022-07-23T00:45:11;101918.87;;;18.60;100.00
47983;BME280;33751;50.816;-1.214;2022-07-23T00:47:39;101920.11;;;18.52;100.00
47983;BME280;33751;50.816;-1.214;2022-07-23T00:50:08;101919.67;;;18.84;100.00
47983;BME280;33751;50.816;-1.214;2022-07-23T00:52:37;101921.36;;;18.89;100.00
47983;BME280;33751;50.816;-1.214;2022-07-23T00:55:05;101923.75;;;18.31;100.00
47983;BME280;33751;50.816;-1.214;2022-07-23T00:57:33;101928.68;;;18.43;100.00
47983;BME280;33751;50.816;-1.214;2022-07-23T01:00:00;101926.70;;;18.25;100.00
47983;BME280;33751;50.816;-1.214;2022-07-23T01:02:27;101924.01;;;18.52;100.00
47983;BME280;33751;50.816;-1.214;2022-07-23T01:04:55;101926.28;;;18.43;100.00
47983;BME280;33751;50.816;-1.214;2022-07-23T01:07:22;101927.06;;;18.59;100.00
47983;BME280;33751;50.816;-1.214;2022-07-23T01:09:51;101928.96;;;18.16;100.00
47983;BME280;33751;50.816;-1.214;2022-07-23T01:12:18;101932.83;;;18.03;100.00
47983;BME280;33751;50.816;-1.214;2022-07-23T01:14:45;101936.35;;;18.11;100.00
47983;BME280;33751;50.816;-1.214;2022-07-23T01:17:12;101939.65;;;18.07;100.00
47983;BME280;33751;50.816;-1.214;2022-07-23T01:19:38;101937.87;;;18.07;100.00
47983;BME280;33751;50.816;-1.214;2022-07-23T01:22:05;101941.08;;;17.91;100.00
47983;BME280;33751;50.816;-1.214;2022-07-23T01:24:33;101942.13;;;18.35;100.00
47983;BME280;33751;50.816;-1.214;2022-07-23T01:27:00;101943.80;;;17.81;100.00
47983;BME280;33751;50.816;-1.214;2022-07-23T01:29:27;101940.62;;;17.69;100.00
47983;BME280;33751;50.816;-1.214;2022-07-23T01:31:54;101934.63;;;17.59;100.00
47983;BME280;33751;50.816;-1.214;2022-07-23T01:34:21;101936.34;;;18.24;100.00
47983;BME280;33751;50.816;-1.214;2022-07-23T01:36:47;101937.03;;;18.33;100.00
47983;BME280;33751;50.816;-1.214;2022-07-23T01:39:14;101936.53;;;18.02;100.00
47983;BME280;33751;50.816;-1.214;2022-07-23T01:41:42;101935.61;;;17.85;100.00
47983;BME280;33751;50.816;-1.214;2022-07-23T01:44:08;101929.46;;;17.60;100.00
47983;BME280;33751;50.816;-1.214;2022-07-23T01:46:35;101925.40;;;17.40;100.00
47983;BME280;33751;50.816;-1.214;2022-07-23T01:49:02;101924.72;;;17.09;100.00
47983;BME280;33751;50.816;-1.214;2022-07-23T01:51:29;101929.28;;;16.82;100.00
47983;BME280;33751;50.816;-1.214;2022-07-23T01:53:56;101930.82;;;16.81;100.00
47983;BME280;33751;50.816;-1.214;2022-07-23T01:56:23;101926.79;;;16.52;100.00
47983;BME280;33751;50.816;-1.214;2022-07-23T01:58:50;101924.37;;;17.14;100.00
47983;BME280;33751;50.816;-1.214;2022-07-23T02:01:17;101921.33;;;17.11;100.00
47983;BME280;33751;50.816;-1.214;2022-07-23T02:03:45;101921.42;;;16.68;100.00
47983;BME280;33751;50.816;-1.214;2022-07-23T02:06:12;101920.71;;;16.85;100.00
47983;BME280;33751;50.816;-1.214;2022-07-23T02:08:38;101919.81;;;16.71;100.00
47983;BME280;33751;50.816;-1.214;2022-07-23T02:11:06;101916.30;;;16.58;100.00
47983;BME280;33751;50.816;-1.214;2022-07-23T02:13:32;101919.77;;;17.15;100.00
47983;BME280;33751;50.816;-1.214;2022-07-23T02:15:59;101920.37;;;17.39;100.00
47983;BME280;33751;50.816;-1.214;2022-07-23T02:18:26;101925.42;;;17.15;100.00
47983;BME280;33751;50.816;-1.214;2022-07-23T02:20:53;101927.03;;;17.30;100.00
47983;BME280;33751;50.816;-1.214;2022-07-23T02:23:19;101927.47;;;17.16;100.00
47983;BME280;33751;50.816;-1.214;2022-07-23T02:25:47;101925.26;;;17.04;100.00
47983;BME280;33751;50.816;-1.214;2022-07-23T02:28:14;101928.21;;;16.99;100.00
47983;BME280;33751;50.816;-1.214;2022-07-23T02:30:41;101930.81;;;16.58;100.00
47983;BME280;33751;50.816;-1.214;2022-07-23T02:33:07;101931.26;;;16.77;100.00
47983;BME280;33751;50.816;-1.214;2022-07-23T02:35:34;101931.81;;;17.33;100.00
47983;BME280;33751;50.816;-1.214;2022-07-23T02:38:01;101931.84;;;16.86;100.00
47983;BME280;33751;50.816;-1.214;2022-07-23T02:40:29;101930.94;;;17.07;100.00
47983;BME280;33751;50.816;-1.214;2022-07-23T02:42:55;101931.51;;;16.91;100.00
47983;BME280;33751;50.816;-1.214;2022-07-23T02:45:22;101934.19;;;16.54;100.00
47983;BME280;33751;50.816;-1.214;2022-07-23T02:47:49;101937.25;;;16.36;100.00
47983;BME280;33751;50.816;-1.214;2022-07-23T02:50:16;101937.12;;;16.45;100.00
47983;BME280;33751;50.816;-1.214;2022-07-23T02:52:43;101941.38;;;16.60;100.00
47983;BME280;33751;50.816;-1.214;2022-07-23T02:55:10;101940.10;;;16.71;100.00
47983;BME280;33751;50.816;-1.214;2022-07-23T02:57:38;101942.40;;;16.30;100.00
47983;BME280;33751;50.816;-1.214;2022-07-23T03:00:06;101940.63;;;16.64;100.00
47983;BME280;33751;50.816;-1.214;2022-07-23T03:02:34;101938.15;;;16.61;100.00
47983;BME280;33751;50.816;-1.214;2022-07-23T03:05:01;101937.20;;;16.44;100.00
47983;BME280;33751;50.816;-1.214;2022-07-23T03:07:29;101934.12;;;16.54;100.00
47983;BME280;33751;50.816;-1.214;2022-07-23T03:09:55;101936.14;;;16.44;100.00
47983;BME280;33751;50.816;-1.214;2022-07-23T03:12:23;101939.95;;;16.43;100.00
47983;BME280;33751;50.816;-1.214;2022-07-23T03:14:50;101939.24;;;16.09;100.00
47983;BME280;33751;50.816;-1.214;2022-07-23T03:17:17;101939.10;;;16.23;100.00
47983;BME280;33751;50.816;-1.214;2022-07-23T03:19:44;101943.69;;;16.27;100.00
47983;BME280;33751;50.816;-1.214;2022-07-23T03:22:11;101945.81;;;16.10;100.00
47983;BME280;33751;50.816;-1.214;2022-07-23T03:24:38;101945.59;;;16.39;100.00
47983;BME280;33751;50.816;-1.214;2022-07-23T03:27:05;101943.61;;;16.23;100.00
47983;BME280;33751;50.816;-1.214;2022-07-23T03:29:32;101942.23;;;16.31;100.00
47983;BME280;33751;50.816;-1.214;2022-07-23T03:31:59;101945.59;;;16.29;100.00
47983;BME280;33751;50.816;-1.214;2022-07-23T03:34:26;101947.55;;;16.33;100.00
47983;BME280;33751;50.816;-1.214;2022-07-23T03:36:52;101945.03;;;16.16;100.00
47983;BME280;33751;50.816;-1.214;2022-07-23T03:39:19;101942.77;;;16.05;100.00
47983;BME280;33751;50.816;-1.214;2022-07-23T03:41:45;101939.09;;;15.93;100.00
47983;BME280;33751;50.816;-1.214;2022-07-23T03:44:12;101936.04;;;16.04;100.00
47983;BME280;33751;50.816;-1.214;2022-07-23T03:46:38;101939.02;;;15.85;100.00
47983;BME280;33751;50.816;-1.214;2022-07-23T03:49:05;101942.79;;;16.04;100.00
47983;BME280;33751;50.816;-1.214;2022-07-23T03:51:32;101942.74;;;15.82;100.00
47983;BME280;33751;50.816;-1.214;2022-07-23T03:53:59;101931.67;;;15.94;100.00
47983;BME280;33751;50.816;-1.214;2022-07-23T03:56:26;101935.45;;;15.55;100.00
47983;BME280;33751;50.816;-1.214;2022-07-23T03:58:53;101936.79;;;15.74;100.00
47983;BME280;33751;50.816;-1.214;2022-07-23T04:01:20;101938.18;;;15.87;100.00
47983;BME280;33751;50.816;-1.214;2022-07-23T04:03:46;101940.16;;;15.61;100.00
47983;BME280;33751;50.816;-1.214;2022-07-23T04:06:13;101942.46;;;15.95;100.00
47983;BME280;33751;50.816;-1.214;2022-07-23T04:08:39;101946.87;;;16.01;100.00
47983;BME280;33751;50.816;-1.214;2022-07-23T04:11:06;101953.26;;;15.89;100.00
47983;BME280;33751;50.816;-1.214;2022-07-23T04:13:33;101955.35;;;16.02;100.00
47983;BME280;33751;50.816;-1.214;2022-07-23T04:16:00;101952.54;;;15.71;100.00
47983;BME280;33751;50.816;-1.214;2022-07-23T04:18:28;101950.64;;;15.72;100.00
47983;BME280;33751;50.816;-1.214;2022-07-23T04:20:54;101947.36;;;15.80;100.00
47983;BME280;33751;50.816;-1.214;2022-07-23T04:23:22;101948.64;;;15.85;100.00
47983;BME280;33751;50.816;-1.214;2022-07-23T04:25:48;101945.91;;;15.65;100.00
47983;BME280;33751;50.816;-1.214;2022-07-23T04:28:16;101947.10;;;15.57;100.00
47983;BME280;33751;50.816;-1.214;2022-07-23T04:30:43;101947.77;;;15.62;100.00
47983;BME280;33751;50.816;-1.214;2022-07-23T04:33:09;101948.57;;;15.61;100.00
47983;BME280;33751;50.816;-1.214;2022-07-23T04:35:37;101948.20;;;15.34;100.00
47983;BME280;33751;50.816;-1.214;2022-07-23T04:38:04;101951.72;;;15.79;100.00
47983;BME280;33751;50.816;-1.214;2022-07-23T04:40:31;101953.62;;;15.57;100.00
47983;BME280;33751;50.816;-1.214;2022-07-23T04:42:58;101951.30;;;15.96;100.00
47983;BME280;33751;50.816;-1.214;2022-07-23T04:45:25;101955.79;;;15.59;100.00
47983;BME280;33751;50.816;-1.214;2022-07-23T04:47:52;101958.61;;;15.77;100.00
47983;BME280;33751;50.816;-1.214;2022-07-23T04:50:19;101958.95;;;15.68;100.00
47983;BME280;33751;50.816;-1.214;2022-07-23T04:52:46;101959.10;;;15.56;100.00
47983;BME280;33751;50.816;-1.214;2022-07-23T04:55:13;101956.76;;;15.64;100.00
47983;BME280;33751;50.816;-1.214;2022-07-23T04:57:41;101954.06;;;15.69;100.00
47983;BME280;33751;50.816;-1.214;2022-07-23T05:00:09;101953.60;;;15.78;100.00
47983;BME280;33751;50.816;-1.214;2022-07-23T05:02:37;101953.36;;;15.56;100.00
47983;BME280;33751;50.816;-1.214;2022-07-23T05:05:05;101955.31;;;15.78;100.00
47983;BME280;33751;50.816;-1.214;2022-07-23T05:07:32;101959.07;;;15.97;100.00
47983;BME280;33751;50.816;-1.214;2022-07-23T05:09:59;101965.23;;;15.96;100.00
47983;BME280;33751;50.816;-1.214;2022-07-23T05:12:26;101965.30;;;16.08;100.00
47983;BME280;33751;50.816;-1.214;2022-07-23T05:14:53;101958.52;;;16.08;100.00
47983;BME280;33751;50.816;-1.214;2022-07-23T05:17:20;101957.73;;;16.25;100.00
47983;BME280;33751;50.816;-1.214;2022-07-23T05:19:47;101954.65;;;16.32;100.00
47983;BME280;33751;50.816;-1.214;2022-07-23T05:22:14;101951.92;;;16.14;100.00
47983;BME280;33751;50.816;-1.214;2022-07-23T05:24:41;101955.81;;;16.25;100.00
47983;BME280;33751;50.816;-1.214;2022-07-23T05:27:07;101956.72;;;16.16;100.00
47983;BME280;33751;50.816;-1.214;2022-07-23T05:29:34;101962.13;;;16.41;100.00
47983;BME280;33751;50.816;-1.214;2022-07-23T05:32:01;101961.19;;;16.44;100.00
47983;BME280;33751;50.816;-1.214;2022-07-23T05:34:28;101958.82;;;16.11;100.00
47983;BME280;33751;50.816;-1.214;2022-07-23T05:36:56;101962.06;;;16.68;100.00
47983;BME280;33751;50.816;-1.214;2022-07-23T05:39:22;101961.46;;;16.47;100.00
47983;BME280;33751;50.816;-1.214;2022-07-23T05:41:50;101965.20;;;16.77;100.00
47983;BME280;33751;50.816;-1.214;2022-07-23T05:44:17;101962.63;;;16.97;100.00
47983;BME280;33751;50.816;-1.214;2022-07-23T05:46:44;101960.36;;;17.17;100.00
47983;BME280;33751;50.816;-1.214;2022-07-23T05:49:12;101959.83;;;16.98;100.00
47983;BME280;33751;50.816;-1.214;2022-07-23T05:51:38;101959.59;;;17.35;100.00
47983;BME280;33751;50.816;-1.214;2022-07-23T05:54:05;101957.74;;;17.53;100.00
47983;BME280;33751;50.816;-1.214;2022-07-23T05:56:32;101957.95;;;17.79;100.00
47983;BME280;33751;50.816;-1.214;2022-07-23T05:58:58;101954.07;;;17.29;100.00
47983;BME280;33751;50.816;-1.214;2022-07-23T06:01:25;101954.76;;;17.40;100.00
47983;BME280;33751;50.816;-1.214;2022-07-23T06:03:52;101956.31;;;17.55;100.00
47983;BME280;33751;50.816;-1.214;2022-07-23T06:06:19;101954.84;;;17.22;100.00
47983;BME280;33751;50.816;-1.214;2022-07-23T06:08:46;101955.87;;;17.73;100.00
47983;BME280;33751;50.816;-1.214;2022-07-23T06:11:13;101956.77;;;17.49;100.00
47983;BME280;33751;50.816;-1.214;2022-07-23T06:13:39;101959.88;;;17.92;100.00
47983;BME280;33751;50.816;-1.214;2022-07-23T06:16:07;101960.28;;;17.77;100.00
47983;BME280;33751;50.816;-1.214;2022-07-23T06:18:34;101963.38;;;17.82;100.00
47983;BME280;33751;50.816;-1.214;2022-07-23T06:21:01;101965.60;;;18.00;100.00
47983;BME280;33751;50.816;-1.214;2022-07-23T06:23:27;101961.34;;;18.96;100.00
47983;BME280;33751;50.816;-1.214;2022-07-23T06:25:54;101957.43;;;18.51;100.00
47983;BME280;33751;50.816;-1.214;2022-07-23T06:28:21;101960.85;;;18.16;100.00
47983;BME280;33751;50.816;-1.214;2022-07-23T06:30:48;101961.72;;;18.36;100.00
47983;BME280;33751;50.816;-1.214;2022-07-23T06:33:14;101963.03;;;18.62;100.00
47983;BME280;33751;50.816;-1.214;2022-07-23T06:35:41;101961.64;;;18.72;100.00
47983;BME280;33751;50.816;-1.214;2022-07-23T06:38:08;101956.53;;;18.48;100.00
47983;BME280;33751;50.816;-1.214;2022-07-23T06:40:35;101956.16;;;18.70;100.00
47983;BME280;33751;50.816;-1.214;2022-07-23T06:43:02;101958.48;;;19.00;100.00
47983;BME280;33751;50.816;-1.214;2022-07-23T06:45:29;101955.33;;;18.55;100.00
47983;BME280;33751;50.816;-1.214;2022-07-23T06:47:55;101955.56;;;18.82;100.00
47983;BME280;33751;50.816;-1.214;2022-07-23T06:50:22;101955.75;;;18.80;100.00
47983;BME280;33751;50.816;-1.214;2022-07-23T06:52:49;101959.74;;;18.71;100.00
47983;BME280;33751;50.816;-1.214;2022-07-23T06:55:15;101961.36;;;19.01;100.00
47983;BME280;33751;50.816;-1.214;2022-07-23T06:57:42;101962.57;;;18.97;100.00
47983;BME280;33751;50.816;-1.214;2022-07-23T07:00:10;101967.67;;;19.06;100.00
47983;BME280;33751;50.816;-1.214;2022-07-23T07:02:37;101969.11;;;19.25;100.00
47983;BME280;33751;50.816;-1.214;2022-07-23T07:05:05;101971.27;;;19.40;100.00
47983;BME280;33751;50.816;-1.214;2022-07-23T07:07:31;101973.60;;;18.96;100.00
47983;BME280;33751;50.816;-1.214;2022-07-23T07:09:58;101979.17;;;19.10;100.00
47983;BME280;33751;50.816;-1.214;2022-07-23T07:12:25;101981.67;;;18.90;100.00
47983;BME280;33751;50.816;-1.214;2022-07-23T07:14:52;101995.29;;;18.91;100.00
47983;BME280;33751;50.816;-1.214;2022-07-23T07:17:19;101996.73;;;19.05;100.00
47983;BME280;33751;50.816;-1.214;2022-07-23T07:19:46;101991.71;;;19.56;100.00
47983;BME280;33751;50.816;-1.214;2022-07-23T07:22:13;101987.41;;;18.96;100.00
47983;BME280;33751;50.816;-1.214;2022-07-23T07:24:40;101994.02;;;18.83;100.00
47983;BME280;33751;50.816;-1.214;2022-07-23T07:27:07;101991.65;;;18.98;100.00
47983;BME280;33751;50.816;-1.214;2022-07-23T07:29:34;101995.31;;;19.19;100.00
47983;BME280;33751;50.816;-1.214;2022-07-23T07:32:01;101991.54;;;19.45;100.00
47983;BME280;33751;50.816;-1.214;2022-07-23T07:34:28;101988.85;;;19.39;100.00
47983;BME280;33751;50.816;-1.214;2022-07-23T07:36:55;101986.84;;;19.36;100.00
47983;BME280;33751;50.816;-1.214;2022-07-23T07:39:22;101986.97;;;19.53;100.00
47983;BME280;33751;50.816;-1.214;2022-07-23T07:41:48;101991.41;;;19.52;100.00
47983;BME280;33751;50.816;-1.214;2022-07-23T07:44:15;101988.01;;;19.80;100.00
47983;BME280;33751;50.816;-1.214;2022-07-23T07:46:42;101990.22;;;19.97;100.00
47983;BME280;33751;50.816;-1.214;2022-07-23T07:49:10;101993.36;;;19.93;100.00
47983;BME280;33751;50.816;-1.214;2022-07-23T07:51:37;101995.12;;;20.53;100.00
47983;BME280;33751;50.816;-1.214;2022-07-23T07:54:03;101996.24;;;20.69;100.00
47983;BME280;33751;50.816;-1.214;2022-07-23T07:56:30;101992.67;;;20.39;100.00
47983;BME280;33751;50.816;-1.214;2022-07-23T07:58:58;101990.53;;;20.75;100.00
47983;BME280;33751;50.816;-1.214;2022-07-23T08:01:25;101991.41;;;20.66;100.00
47983;BME280;33751;50.816;-1.214;2022-07-23T08:03:52;101997.90;;;20.57;100.00
47983;BME280;33751;50.816;-1.214;2022-07-23T08:06:19;102000.30;;;20.79;100.00
47983;BME280;33751;50.816;-1.214;2022-07-23T08:08:45;102003.66;;;20.43;100.00
47983;BME280;33751;50.816;-1.214;2022-07-23T08:11:13;102004.53;;;20.80;100.00
47983;BME280;33751;50.816;-1.214;2022-07-23T08:13:40;102005.83;;;21.01;100.00
47983;BME280;33751;50.816;-1.214;2022-07-23T08:16:07;102006.12;;;21.00;100.00
47983;BME280;33751;50.816;-1.214;2022-07-23T08:18:34;102006.77;;;20.62;100.00
47983;BME280;33751;50.816;-1.214;2022-07-23T08:21:01;102000.85;;;20.74;100.00
47983;BME280;33751;50.816;-1.214;2022-07-23T08:23:29;101995.48;;;20.85;100.00
47983;BME280;33751;50.816;-1.214;2022-07-23T08:25:56;102003.39;;;20.21;100.00
47983;BME280;33751;50.816;-1.214;2022-07-23T08:28:23;101996.62;;;20.34;100.00
47983;BME280;33751;50.816;-1.214;2022-07-23T08:30:50;101996.56;;;21.00;100.00
47983;BME280;33751;50.816;-1.214;2022-07-23T08:33:18;101998.24;;;21.31;100.00
47983;BME280;33751;50.816;-1.214;2022-07-23T08:35:48;102002.24;;;20.51;100.00
47983;BME280;33751;50.816;-1.214;2022-07-23T08:38:16;101996.88;;;20.89;100.00
47983;BME280;33751;50.816;-1.214;2022-07-23T08:40:46;101996.48;;;21.16;100.00
47983;BME280;33751;50.816;-1.214;2022-07-23T08:43:16;101998.88;;;21.41;100.00
47983;BME280;33751;50.816;-1.214;2022-07-23T08:45:44;102004.33;;;21.01;100.00
47983;BME280;33751;50.816;-1.214;2022-07-23T08:48:13;101999.87;;;21.25;100.00
47983;BME280;33751;50.816;-1.214;2022-07-23T08:50:44;101997.09;;;21.53;100.00
47983;BME280;33751;50.816;-1.214;2022-07-23T08:53:12;101999.80;;;21.28;100.00
47983;BME280;33751;50.816;-1.214;2022-07-23T08:55:39;101998.69;;;21.35;100.00
47983;BME280;33751;50.816;-1.214;2022-07-23T08:58:06;101996.65;;;21.32;97.51
47983;BME280;33751;50.816;-1.214;2022-07-23T09:00:33;101999.36;;;21.23;94.27
47983;BME280;33751;50.816;-1.214;2022-07-23T09:03:00;102003.80;;;21.34;91.24
47983;BME280;33751;50.816;-1.214;2022-07-23T09:05:28;102004.02;;;21.47;83.42
47983;BME280;33751;50.816;-1.214;2022-07-23T09:08:12;102005.77;;;21.71;80.11
47983;BME280;33751;50.816;-1.214;2022-07-23T09:10:49;102008.44;;;21.78;79.06
47983;BME280;33751;50.816;-1.214;2022-07-23T09:13:35;102005.41;;;21.91;84.09
47983;BME280;33751;50.816;-1.214;2022-07-23T09:16:06;102000.15;;;22.32;72.77
47983;BME280;33751;50.816;-1.214;2022-07-23T09:18:37;102005.58;;;22.07;67.87
47983;BME280;33751;50.816;-1.214;2022-07-23T09:21:07;102005.39;;;22.29;62.50
47983;BME280;33751;50.816;-1.214;2022-07-23T09:23:38;102004.07;;;22.21;64.41
47983;BME280;33751;50.816;-1.214;2022-07-23T09:26:19;102006.51;;;22.77;59.05
47983;BME280;33751;50.816;-1.214;2022-07-23T09:28:51;102008.27;;;22.81;59.30
47983;BME280;33751;50.816;-1.214;2022-07-23T09:31:19;102014.69;;;23.01;59.50
47983;BME280;33751;50.816;-1.214;2022-07-23T09:33:46;102010.26;;;23.10;60.18
47983;BME280;33751;50.816;-1.214;2022-07-23T09:36:13;102017.33;;;23.01;56.96
47983;BME280;33751;50.816;-1.214;2022-07-23T09:38:48;102017.46;;;22.99;56.69
47983;BME280;33751;50.816;-1.214;2022-07-23T09:41:15;102018.13;;;23.39;57.17
47983;BME280;33751;50.816;-1.214;2022-07-23T09:43:42;102017.14;;;23.24;56.64
47983;BME280;33751;50.816;-1.214;2022-07-23T09:46:18;102019.58;;;23.18;56.14
47983;BME280;33751;50.816;-1.214;2022-07-23T09:48:45;102020.51;;;23.24;54.60
47983;BME280;33751;50.816;-1.214;2022-07-23T09:51:13;102023.90;;;23.66;56.91
47983;BME280;33751;50.816;-1.214;2022-07-23T09:53:39;102018.71;;;23.15;58.46
47983;BME280;33751;50.816;-1.214;2022-07-23T09:56:07;102013.02;;;23.43;60.36
47983;BME280;33751;50.816;-1.214;2022-07-23T09:58:37;102007.58;;;23.55;58.04
47983;BME280;33751;50.816;-1.214;2022-07-23T10:01:06;102007.04;;;23.84;57.37
47983;BME280;33751;50.816;-1.214;2022-07-23T10:03:33;102005.19;;;23.67;57.65
47983;BME280;33751;50.816;-1.214;2022-07-23T10:06:01;102001.89;;;23.60;56.42
47983;BME280;33751;50.816;-1.214;2022-07-23T10:08:28;102005.23;;;23.93;60.85
47983;BME280;33751;50.816;-1.214;2022-07-23T10:10:59;102003.27;;;24.29;56.27
47983;BME280;33751;50.816;-1.214;2022-07-23T10:13:27;102008.10;;;24.04;61.74
47983;BME280;33751;50.816;-1.214;2022-07-23T10:15:55;102011.61;;;23.95;60.99
47983;BME280;33751;50.816;-1.214;2022-07-23T10:18:23;102006.19;;;24.35;58.72
47983;BME280;33751;50.816;-1.214;2022-07-23T10:20:50;102006.10;;;24.22;59.19
47983;BME280;33751;50.816;-1.214;2022-07-23T10:23:24;102009.95;;;24.44;60.12
47983;BME280;33751;50.816;-1.214;2022-07-23T10:25:59;102012.82;;;24.48;58.29
47983;BME280;33751;50.816;-1.214;2022-07-23T10:29:01;102009.06;;;24.46;56.40
47983;BME280;33751;50.816;-1.214;2022-07-23T10:31:41;102006.16;;;24.36;58.36
47983;BME280;33751;50.816;-1.214;2022-07-23T10:34:19;102005.53;;;24.39;57.61
47983;BME280;33751;50.816;-1.214;2022-07-23T10:36:52;102004.49;;;24.81;57.88
47983;BME280;33751;50.816;-1.214;2022-07-23T10:39:23;102001.01;;;24.37;60.31
47983;BME280;33751;50.816;-1.214;2022-07-23T10:41:51;101993.21;;;24.68;58.59
47983;BME280;33751;50.816;-1.214;2022-07-23T10:44:20;101989.03;;;24.52;62.49
47983;BME280;33751;50.816;-1.214;2022-07-23T10:46:56;101985.21;;;24.64;61.27
47983;BME280;33751;50.816;-1.214;2022-07-23T10:49:25;101983.87;;;24.49;62.10
47983;BME280;33751;50.816;-1.214;2022-07-23T10:52:25;101981.72;;;25.01;59.97
47983;BME280;33751;50.816;-1.214;2022-07-23T10:54:55;101980.82;;;24.66;64.72
47983;BME280;33751;50.816;-1.214;2022-07-23T10:57:24;101983.72;;;24.87;63.22
47983;BME280;33751;50.816;-1.214;2022-07-23T11:00:24;101979.08;;;25.30;66.74
47983;BME280;33751;50.816;-1.214;2022-07-23T11:02:53;101978.51;;;25.27;66.73
47983;BME280;33751;50.816;-1.214;2022-07-23T11:05:21;101982.79;;;25.12;65.83
47983;BME280;33751;50.816;-1.214;2022-07-23T11:08:21;101982.19;;;25.62;68.81
47983;BME280;33751;50.816;-1.214;2022-07-23T11:10:52;101979.66;;;25.44;65.12
47983;BME280;33751;50.816;-1.214;2022-07-23T11:13:41;101971.77;;;25.75;65.14
47983;BME280;33751;50.816;-1.214;2022-07-23T11:16:14;101975.22;;;25.85;67.19
47983;BME280;33751;50.816;-1.214;2022-07-23T11:19:14;101978.61;;;26.50;65.96
47983;BME280;33751;50.816;-1.214;2022-07-23T11:21:43;101982.61;;;26.00;65.06
47983;BME280;33751;50.816;-1.214;2022-07-23T11:24:12;101986.77;;;25.82;62.19
47983;BME280;33751;50.816;-1.214;2022-07-23T11:26:43;101993.61;;;25.91;63.79
47983;BME280;33751;50.816;-1.214;2022-07-23T11:29:47;101991.48;;;26.28;61.37
47983;BME280;33751;50.816;-1.214;2022-07-23T11:32:37;101996.15;;;26.32;63.72
47983;BME280;33751;50.816;-1.214;2022-07-23T11:35:21;101996.99;;;26.03;60.86
47983;BME280;33751;50.816;-1.214;2022-07-23T11:37:49;101992.23;;;25.91;61.11
47983;BME280;33751;50.816;-1.214;2022-07-23T11:40:17;101991.95;;;26.12;61.36
47983;BME280;33751;50.816;-1.214;2022-07-23T11:42:53;101992.84;;;26.13;61.49
47983;BME280;33751;50.816;-1.214;2022-07-23T11:45:21;101992.41;;;26.51;63.16
47983;BME280;33751;50.816;-1.214;2022-07-23T11:47:49;101991.47;;;26.73;60.52
47983;BME280;33751;50.816;-1.214;2022-07-23T11:50:15;101989.06;;;26.82;61.71
47983;BME280;33751;50.816;-1.214;2022-07-23T11:52:43;101986.71;;;26.78;58.80
47983;BME280;33751;50.816;-1.214;2022-07-23T11:55:11;101990.67;;;26.92;59.83
47983;BME280;33751;50.816;-1.214;2022-07-23T11:57:40;101991.44;;;26.69;58.43
47983;BME280;33751;50.816;-1.214;2022-07-23T12:00:09;101985.52;;;26.63;58.53
47983;BME280;33751;50.816;-1.214;2022-07-23T12:02:37;101986.64;;;26.55;58.50
47983;BME280;33751;50.816;-1.214;2022-07-23T12:05:05;101987.89;;;26.75;57.78
47983;BME280;33751;50.816;-1.214;2022-07-23T12:07:34;101984.69;;;26.79;59.33
47983;BME280;33751;50.816;-1.214;2022-07-23T12:10:04;101989.69;;;26.89;60.16
47983;BME280;33751;50.816;-1.214;2022-07-23T12:12:36;101989.43;;;26.21;61.15
47983;BME280;33751;50.816;-1.214;2022-07-23T12:15:04;101989.01;;;26.63;62.93
47983;BME280;33751;50.816;-1.214;2022-07-23T12:17:34;101993.72;;;26.21;64.21
47983;BME280;33751;50.816;-1.214;2022-07-23T12:20:04;101994.12;;;26.51;65.14
47983;BME280;33751;50.816;-1.214;2022-07-23T12:22:36;102002.52;;;26.85;63.96
47983;BME280;33751;50.816;-1.214;2022-07-23T12:25:06;102008.49;;;26.80;62.40
47983;BME280;33751;50.816;-1.214;2022-07-23T12:27:33;102005.00;;;26.08;64.77
47983;BME280;33751;50.816;-1.214;2022-07-23T12:30:16;102009.83;;;25.88;66.34
47983;BME280;33751;50.816;-1.214;2022-07-23T12:32:44;101998.57;;;25.76;68.38
47983;BME280;33751;50.816;-1.214;2022-07-23T12:35:12;101995.57;;;25.74;71.30
47983;BME280;33751;50.816;-1.214;2022-07-23T12:37:41;101988.55;;;25.56;71.46
47983;BME280;33751;50.816;-1.214;2022-07-23T12:40:26;101983.47;;;25.91;72.20